sensor_id;sensor_type;location;lat;lon;timestamp;pressure;altitude;pressure_sealevel;temperature;humidity
21185;BME280;18176;49.502;11.754;2022-10-17T00:02:45;97611.00;;;20.70;62.73
21185;BME280;18176;49.502;11.754;2022-10-17T00:06:45;97611.44;;;20.44;63.43
21185;BME280;18176;49.502;11.754;2022-10-17T00:10:54;97612.25;;;20.44;63.28
21185;BME280;18176;49.502;11.754;2022-10-17T00:14:55;97625.41;;;20.46;63.14
21185;BME280;18176;49.502;11.754;2022-10-17T00:18:57;97617.97;;;20.27;63.31
21185;BME280;18176;49.502;11.754;2022-10-17T00:22:58;97630.81;;;20.46;63.03
21185;BME280;18176;49.502;11.754;2022-10-17T00:26:58;97605.56;;;20.32;63.11
21185;BME280;18176;49.502;11.754;2022-10-17T00:31:00;97630.81;;;20.41;63.19
21185;BME280;18176;49.502;11.754;2022-10-17T00:35:04;97638.34;;;20.44;62.60
21185;BME280;18176;49.502;11.754;2022-10-17T00:39:05;97635.69;;;20.28;62.89
21185;BME280;18176;49.502;11.754;2022-10-17T00:43:14;97641.09;;;20.18;63.09
21185;BME280;18176;49.502;11.754;2022-10-17T00:47:19;97637.88;;;20.16;63.18
21185;BME280;18176;49.502;11.754;2022-10-17T00:51:33;97633.34;;;19.97;63.44
21185;BME280;18176;49.502;11.754;2022-10-17T00:55:42;97642.75;;;19.99;63.34
21185;BME280;18176;49.502;11.754;2022-10-17T00:59:49;97629.34;;;19.84;63.21
21185;BME280;18176;49.502;11.754;2022-10-17T01:03:50;97639.53;;;19.87;63.10
21185;BME280;18176;49.502;11.754;2022-10-17T01:07:53;97637.94;;;19.76;63.75
21185;BME280;18176;49.502;11.754;2022-10-17T01:12:03;97643.31;;;19.71;62.53
21185;BME280;18176;49.502;11.754;2022-10-17T01:16:13;97650.06;;;19.58;62.76
21185;BME280;18176;49.502;11.754;2022-10-17T01:25:26;97654.09;;;19.36;62.76
21185;BME280;18176;49.502;11.754;2022-10-17T01:29:56;97631.47;;;19.17;63.43
21185;BME280;18176;49.502;11.754;2022-10-17T01:34:09;97652.72;;;19.33;63.02
21185;BME280;18176;49.502;11.754;2022-10-17T01:38:17;97648.69;;;19.31;62.77
21185;BME280;18176;49.502;11.754;2022-10-17T01:42:27;97628.50;;;19.03;63.43
21185;BME280;18176;49.502;11.754;2022-10-17T01:46:35;97650.53;;;19.20;63.90
21185;BME280;18176;49.502;11.754;2022-10-17T01:50:46;97650.28;;;19.17;63.93
21185;BME280;18176;49.502;11.754;2022-10-17T01:54:52;97640.59;;;19.21;63.23
21185;BME280;18176;49.502;11.754;2022-10-17T01:58:59;97634.69;;;19.04;63.66
21185;BME280;18176;49.502;11.754;2022-10-17T02:03:06;97629.88;;;19.11;62.71
21185;BME280;18176;49.502;11.754;2022-10-17T02:07:12;97637.34;;;18.88;63.64
21185;BME280;18176;49.502;11.754;2022-10-17T02:11:17;97639.00;;;19.10;63.29
21185;BME280;18176;49.502;11.754;2022-10-17T02:15:44;97630.94;;;19.10;63.76
21185;BME280;18176;49.502;11.754;2022-10-17T02:19:56;97626.66;;;19.29;63.66
21185;BME280;18176;49.502;11.754;2022-10-17T02:24:11;97607.84;;;19.34;63.74
21185;BME280;18176;49.502;11.754;2022-10-17T02:28:21;97626.69;;;19.49;63.34
21185;BME280;18176;49.502;11.754;2022-10-17T02:32:27;97619.16;;;19.51;63.42
21185;BME280;18176;49.502;11.754;2022-10-17T02:36:39;97622.38;;;19.53;63.41
21185;BME280;18176;49.502;11.754;2022-10-17T02:40:44;97628.31;;;19.50;63.63
21185;BME280;18176;49.502;11.754;2022-10-17T02:44:46;97621.59;;;19.42;63.78
21185;BME280;18176;49.502;11.754;2022-10-17T02:48:52;97626.13;;;19.37;63.98
21185;BME280;18176;49.502;11.754;2022-10-17T02:52:59;97614.34;;;19.43;63.09
21185;BME280;18176;49.502;11.754;2022-10-17T02:57:09;97625.63;;;19.40;63.53
21185;BME280;18176;49.502;11.754;2022-10-17T03:01:13;97629.34;;;19.39;63.57
21185;BME280;18176;49.502;11.754;2022-10-17T03:05:17;97625.88;;;19.38;63.23
21185;BME280;18176;49.502;11.754;2022-10-17T03:09:18;97623.94;;;19.14;63.33
21185;BME280;18176;49.502;11.754;2022-10-17T03:13:22;97630.41;;;19.08;63.60
21185;BME280;18176;49.502;11.754;2022-10-17T03:17:23;97624.47;;;19.16;62.96
21185;BME280;18176;49.502;11.754;2022-10-17T03:21:23;97639.25;;;19.18;63.61
21185;BME280;18176;49.502;11.754;2022-10-17T03:25:25;97644.38;;;19.20;63.25
21185;BME280;18176;49.502;11.754;2022-10-17T03:29:27;97649.19;;;19.03;63.91
21185;BME280;18176;49.502;11.754;2022-10-17T03:33:28;97644.88;;;18.97;64.02
21185;BME280;18176;49.502;11.754;2022-10-17T03:37:28;97650.03;;;19.23;63.21
21185;BME280;18176;49.502;11.754;2022-10-17T03:41:29;97645.47;;;19.24;63.34
21185;BME280;18176;49.502;11.754;2022-10-17T03:45:32;97654.88;;;19.36;63.02
21185;BME280;18176;49.502;11.754;2022-10-17T03:49:33;97658.94;;;19.39;62.86
21185;BME280;18176;49.502;11.754;2022-10-17T03:53:35;97658.91;;;19.29;63.07
21185;BME280;18176;49.502;11.754;2022-10-17T03:57:35;97658.66;;;19.45;62.24
21185;BME280;18176;49.502;11.754;2022-10-17T04:01:44;97668.03;;;19.33;62.60
21185;BME280;18176;49.502;11.754;2022-10-17T04:05:44;97675.88;;;19.39;62.39
21185;BME280;18176;49.502;11.754;2022-10-17T04:09:44;97672.38;;;19.54;61.74
21185;BME280;18176;49.502;11.754;2022-10-17T04:13:53;97678.84;;;19.58;61.35
21185;BME280;18176;49.502;11.754;2022-10-17T04:17:57;97685.28;;;19.42;61.60
21185;BME280;18176;49.502;11.754;2022-10-17T04:21:57;97682.56;;;19.27;61.85
21185;BME280;18176;49.502;11.754;2022-10-17T04:26:04;97688.47;;;19.29;61.76
21185;BME280;18176;49.502;11.754;2022-10-17T04:30:06;97689.50;;;19.08;61.86
21185;BME280;18176;49.502;11.754;2022-10-17T04:34:09;97689.19;;;18.94;61.60
21185;BME280;18176;49.502;11.754;2022-10-17T04:38:10;97694.19;;;18.70;62.08
21185;BME280;18176;49.502;11.754;2022-10-17T04:42:10;97685.59;;;18.68;62.36
21185;BME280;18176;49.502;11.754;2022-10-17T04:46:13;97678.84;;;18.51;62.04
21185;BME280;18176;49.502;11.754;2022-10-17T04:50:17;97684.47;;;18.54;61.43
21185;BME280;18176;49.502;11.754;2022-10-17T04:54:37;97690.84;;;18.43;61.81
21185;BME280;18176;49.502;11.754;2022-10-17T04:58:41;97678.75;;;18.41;61.54
21185;BME280;18176;49.502;11.754;2022-10-17T05:02:41;97683.53;;;18.34;61.42
21185;BME280;18176;49.502;11.754;2022-10-17T05:06:44;97699.00;;;18.16;62.09
21185;BME280;18176;49.502;11.754;2022-10-17T05:11:04;97700.84;;;18.11;61.90
21185;BME280;18176;49.502;11.754;2022-10-17T05:15:07;97682.13;;;18.16;61.58
21185;BME280;18176;49.502;11.754;2022-10-17T05:19:07;97693.03;;;18.04;61.77
21185;BME280;18176;49.502;11.754;2022-10-17T05:23:16;97641.16;;;17.84;61.33
21185;BME280;18176;49.502;11.754;2022-10-17T05:27:16;97706.22;;;18.11;61.70
21185;BME280;18176;49.502;11.754;2022-10-17T05:31:17;97703.53;;;18.11;61.12
21185;BME280;18176;49.502;11.754;2022-10-17T05:35:18;97715.84;;;18.07;61.18
21185;BME280;18176;49.502;11.754;2022-10-17T05:39:21;97711.28;;;18.07;61.56
21185;BME280;18176;49.502;11.754;2022-10-17T05:43:21;97707.19;;;17.95;61.47
21185;BME280;18176;49.502;11.754;2022-10-17T05:47:22;97722.03;;;18.12;62.32
21185;BME280;18176;49.502;11.754;2022-10-17T05:51:23;97709.16;;;18.09;62.04
21185;BME280;18176;49.502;11.754;2022-10-17T05:55:27;97729.34;;;18.22;62.26
21185;BME280;18176;49.502;11.754;2022-10-17T05:59:28;97725.19;;;18.41;61.99
21185;BME280;18176;49.502;11.754;2022-10-17T06:03:41;97716.69;;;18.54;61.83
21185;BME280;18176;49.502;11.754;2022-10-17T06:07:42;97742.03;;;18.73;62.35
21185;BME280;18176;49.502;11.754;2022-10-17T06:11:46;97743.16;;;18.87;62.50
21185;BME280;18176;49.502;11.754;2022-10-17T06:15:46;97742.44;;;19.12;62.28
21185;BME280;18176;49.502;11.754;2022-10-17T06:19:47;97715.56;;;19.12;62.64
21185;BME280;18176;49.502;11.754;2022-10-17T06:23:47;97708.06;;;19.19;61.77
21185;BME280;18176;49.502;11.754;2022-10-17T06:28:01;97748.44;;;19.44;61.93
21185;BME280;18176;49.502;11.754;2022-10-17T06:32:01;97746.00;;;19.48;62.67
21185;BME280;18176;49.502;11.754;2022-10-17T06:36:06;97751.44;;;19.63;62.30
21185;BME280;18176;49.502;11.754;2022-10-17T06:40:09;97761.41;;;19.73;62.32
21185;BME280;18176;49.502;11.754;2022-10-17T06:44:14;97761.13;;;19.89;62.42
21185;BME280;18176;49.502;11.754;2022-10-17T06:48:39;97770.28;;;20.28;61.93
21185;BME280;18176;49.502;11.754;2022-10-17T06:53:04;97779.69;;;20.31;61.74
21185;BME280;18176;49.502;11.754;2022-10-17T06:57:27;97787.78;;;20.26;62.49
21185;BME280;18176;49.502;11.754;2022-10-17T07:01:52;97788.06;;;20.40;62.93
21185;BME280;18176;49.502;11.754;2022-10-17T07:05:54;97800.38;;;20.71;62.59
21185;BME280;18176;49.502;11.754;2022-10-17T07:09:55;97800.34;;;20.81;62.36
21185;BME280;18176;49.502;11.754;2022-10-17T07:13:55;97804.03;;;21.15;62.40
21185;BME280;18176;49.502;11.754;2022-10-17T07:17:58;97762.03;;;21.04;60.61
21185;BME280;18176;49.502;11.754;2022-10-17T07:21:58;97790.41;;;21.45;60.99
21185;BME280;18176;49.502;11.754;2022-10-17T07:26:00;97788.13;;;21.62;58.94
21185;BME280;18176;49.502;11.754;2022-10-17T07:30:06;97798.34;;;21.71;57.86
21185;BME280;18176;49.502;11.754;2022-10-17T07:34:12;97805.56;;;22.19;58.65
21185;BME280;18176;49.502;11.754;2022-10-17T07:38:12;97812.97;;;22.37;56.61
21185;BME280;18176;49.502;11.754;2022-10-17T07:42:13;97811.19;;;22.56;56.41
21185;BME280;18176;49.502;11.754;2022-10-17T07:46:13;97807.78;;;22.74;55.95
21185;BME280;18176;49.502;11.754;2022-10-17T07:50:17;97815.72;;;22.89;55.62
21185;BME280;18176;49.502;11.754;2022-10-17T07:54:17;97823.59;;;23.10;54.79
21185;BME280;18176;49.502;11.754;2022-10-17T07:58:17;97815.38;;;23.20;54.96
21185;BME280;18176;49.502;11.754;2022-10-17T08:02:21;97817.72;;;23.68;54.18
21185;BME280;18176;49.502;11.754;2022-10-17T08:06:25;97818.38;;;23.79;52.56
21185;BME280;18176;49.502;11.754;2022-10-17T08:10:25;97799.00;;;23.91;52.42
21185;BME280;18176;49.502;11.754;2022-10-17T08:14:26;97787.66;;;24.39;51.66
21185;BME280;18176;49.502;11.754;2022-10-17T08:18:26;97804.38;;;24.60;50.82
21185;BME280;18176;49.502;11.754;2022-10-17T08:22:29;97816.56;;;24.90;50.65
21185;BME280;18176;49.502;11.754;2022-10-17T08:26:32;97811.16;;;25.31;50.16
21185;BME280;18176;49.502;11.754;2022-10-17T08:30:38;97793.63;;;25.64;48.72
21185;BME280;18176;49.502;11.754;2022-10-17T08:34:38;97806.16;;;25.87;48.35
21185;BME280;18176;49.502;11.754;2022-10-17T08:38:41;97805.66;;;26.07;47.84
21185;BME280;18176;49.502;11.754;2022-10-17T08:43:24;97803.97;;;25.98;48.15
21185;BME280;18176;49.502;11.754;2022-10-17T08:47:37;97816.88;;;26.28;47.51
21185;BME280;18176;49.502;11.754;2022-10-17T08:51:48;97815.09;;;26.76;47.22
21185;BME280;18176;49.502;11.754;2022-10-17T08:55:54;97799.63;;;26.85;46.33
21185;BME280;18176;49.502;11.754;2022-10-17T08:59:54;97804.09;;;27.21;45.89
21185;BME280;18176;49.502;11.754;2022-10-17T09:04:27;97805.19;;;27.76;44.99
21185;BME280;18176;49.502;11.754;2022-10-17T09:08:44;97806.78;;;27.94;44.52
21185;BME280;18176;49.502;11.754;2022-10-17T09:13:02;97801.19;;;28.16;43.99
21185;BME280;18176;49.502;11.754;2022-10-17T09:17:20;97810.94;;;28.51;43.43
21185;BME280;18176;49.502;11.754;2022-10-17T09:21:40;97796.31;;;29.11;42.92
21185;BME280;18176;49.502;11.754;2022-10-17T09:25:44;97800.22;;;29.39;41.94
21185;BME280;18176;49.502;11.754;2022-10-17T09:29:54;97800.59;;;29.58;41.44
21185;BME280;18176;49.502;11.754;2022-10-17T09:34:01;97799.28;;;30.06;40.98
21185;BME280;18176;49.502;11.754;2022-10-17T09:38:02;97780.50;;;29.83;40.44
21185;BME280;18176;49.502;11.754;2022-10-17T09:42:04;97752.59;;;29.69;40.94
21185;BME280;18176;49.502;11.754;2022-10-17T09:46:18;97778.72;;;30.41;40.38
21185;BME280;18176;49.502;11.754;2022-10-17T09:50:26;97785.00;;;30.00;40.25
21185;BME280;18176;49.502;11.754;2022-10-17T09:54:39;97775.66;;;30.01;39.99
21185;BME280;18176;49.502;11.754;2022-10-17T09:58:43;97778.66;;;30.08;39.86
21185;BME280;18176;49.502;11.754;2022-10-17T10:02:45;97787.06;;;30.03;40.25
21185;BME280;18176;49.502;11.754;2022-10-17T10:07:03;97790.44;;;30.21;40.36
21185;BME280;18176;49.502;11.754;2022-10-17T10:11:07;97790.19;;;30.79;39.26
21185;BME280;18176;49.502;11.754;2022-10-17T10:15:32;97791.34;;;30.90;39.05
21185;BME280;18176;49.502;11.754;2022-10-17T10:19:37;97784.50;;;32.21;37.25
21185;BME280;18176;49.502;11.754;2022-10-17T10:23:40;97783.72;;;32.95;36.10
21185;BME280;18176;49.502;11.754;2022-10-17T10:27:43;97776.84;;;32.85;36.03
21185;BME280;18176;49.502;11.754;2022-10-17T10:31:44;97774.97;;;32.74;35.71
21185;BME280;18176;49.502;11.754;2022-10-17T10:35:55;97780.38;;;32.15;37.21
21185;BME280;18176;49.502;11.754;2022-10-17T10:40:01;97777.09;;;33.27;35.54
21185;BME280;18176;49.502;11.754;2022-10-17T10:44:02;97763.66;;;33.22;34.89
21185;BME280;18176;49.502;11.754;2022-10-17T10:48:16;97767.59;;;32.93;35.81
21185;BME280;18176;49.502;11.754;2022-10-17T10:52:32;97772.19;;;33.86;33.75
21185;BME280;18176;49.502;11.754;2022-10-17T10:56:37;97767.81;;;34.43;33.35
21185;BME280;18176;49.502;11.754;2022-10-17T11:00:40;97775.66;;;34.41;33.13
21185;BME280;18176;49.502;11.754;2022-10-17T11:04:46;97769.66;;;35.22;32.29
21185;BME280;18176;49.502;11.754;2022-10-17T11:09:02;97770.53;;;35.04;32.03
21185;BME280;18176;49.502;11.754;2022-10-17T11:13:12;97769.25;;;35.73;31.01
21185;BME280;18176;49.502;11.754;2022-10-17T11:17:29;97753.22;;;35.56;31.52
21185;BME280;18176;49.502;11.754;2022-10-17T11:21:42;97765.72;;;36.06;30.71
21185;BME280;18176;49.502;11.754;2022-10-17T11:25:49;97749.38;;;36.97;29.63
21185;BME280;18176;49.502;11.754;2022-10-17T11:29:50;97750.56;;;37.50;28.64
21185;BME280;18176;49.502;11.754;2022-10-17T11:33:57;97757.22;;;38.14;28.59
21185;BME280;18176;49.502;11.754;2022-10-17T11:38:14;97751.69;;;38.18;28.25
21185;BME280;18176;49.502;11.754;2022-10-17T11:42:25;97741.50;;;38.43;28.06
21185;BME280;18176;49.502;11.754;2022-10-17T11:46:28;97756.06;;;37.47;28.50
21185;BME280;18176;49.502;11.754;2022-10-17T11:50:31;97740.41;;;37.68;27.90
21185;BME280;18176;49.502;11.754;2022-10-17T11:54:58;97738.28;;;38.20;27.54
21185;BME280;18176;49.502;11.754;2022-10-17T11:59:39;97735.31;;;37.16;28.72
21185;BME280;18176;49.502;11.754;2022-10-17T12:04:15;97734.47;;;37.12;28.73
21185;BME280;18176;49.502;11.754;2022-10-17T12:08:25;97725.94;;;37.31;27.71
21185;BME280;18176;49.502;11.754;2022-10-17T12:12:34;97727.09;;;37.91;27.04
21185;BME280;18176;49.502;11.754;2022-10-17T12:16:48;97706.19;;;38.12;26.98
21185;BME280;18176;49.502;11.754;2022-10-17T12:20:55;97706.78;;;36.21;29.38
21185;BME280;18176;49.502;11.754;2022-10-17T12:24:59;97721.03;;;36.26;29.70
21185;BME280;18176;49.502;11.754;2022-10-17T12:29:00;97709.59;;;37.08;28.29
21185;BME280;18176;49.502;11.754;2022-10-17T12:33:17;97708.97;;;36.05;29.07
21185;BME280;18176;49.502;11.754;2022-10-17T12:46:49;97708.22;;;35.22;29.89
21185;BME280;18176;49.502;11.754;2022-10-17T12:51:05;97707.78;;;35.76;30.15
21185;BME280;18176;49.502;11.754;2022-10-17T12:55:26;97713.81;;;35.52;30.26
21185;BME280;18176;49.502;11.754;2022-10-17T12:59:28;97703.97;;;35.84;29.88
21185;BME280;18176;49.502;11.754;2022-10-17T13:03:34;97691.22;;;35.16;30.36
21185;BME280;18176;49.502;11.754;2022-10-17T13:07:43;97709.47;;;35.24;29.55
21185;BME280;18176;49.502;11.754;2022-10-17T13:11:49;97700.56;;;34.63;30.04
21185;BME280;18176;49.502;11.754;2022-10-17T13:15:52;97707.78;;;34.71;30.09
21185;BME280;18176;49.502;11.754;2022-10-17T13:19:56;97687.97;;;34.39;30.31
21185;BME280;18176;49.502;11.754;2022-10-17T13:23:56;97706.03;;;33.79;30.57
21185;BME280;18176;49.502;11.754;2022-10-17T13:28:10;97706.84;;;34.41;30.25
21185;BME280;18176;49.502;11.754;2022-10-17T13:32:11;97698.13;;;35.03;29.40
21185;BME280;18176;49.502;11.754;2022-10-17T13:36:17;97708.91;;;35.42;29.39
21185;BME280;18176;49.502;11.754;2022-10-17T13:40:21;97721.50;;;34.90;29.03
21185;BME280;18176;49.502;11.754;2022-10-17T13:44:45;97714.09;;;34.49;29.75
21185;BME280;18176;49.502;11.754;2022-10-17T13:48:46;97712.34;;;34.60;30.49
21185;BME280;18176;49.502;11.754;2022-10-17T13:53:04;97693.13;;;34.44;30.62
21185;BME280;18176;49.502;11.754;2022-10-17T13:57:17;97718.09;;;34.32;31.03
21185;BME280;18176;49.502;11.754;2022-10-17T14:01:20;97705.16;;;33.75;31.84
21185;BME280;18176;49.502;11.754;2022-10-17T14:05:21;97678.09;;;34.16;31.23
21185;BME280;18176;49.502;11.754;2022-10-17T14:09:28;97717.03;;;34.18;31.32
21185;BME280;18176;49.502;11.754;2022-10-17T14:13:31;97707.84;;;33.91;31.64
21185;BME280;18176;49.502;11.754;2022-10-17T14:17:33;97713.72;;;34.09;32.13
21185;BME280;18176;49.502;11.754;2022-10-17T14:21:35;97697.34;;;34.16;31.75
21185;BME280;18176;49.502;11.754;2022-10-17T14:25:43;97706.47;;;34.42;31.53
21185;BME280;18176;49.502;11.754;2022-10-17T14:29:53;97710.31;;;34.57;31.33
21185;BME280;18176;49.502;11.754;2022-10-17T14:33:55;97711.25;;;34.91;30.66
21185;BME280;18176;49.502;11.754;2022-10-17T14:37:59;97716.44;;;34.70;31.50
21185;BME280;18176;49.502;11.754;2022-10-17T14:42:04;97719.41;;;34.61;31.17
21185;BME280;18176;49.502;11.754;2022-10-17T14:46:04;97715.19;;;34.03;31.98
21185;BME280;18176;49.502;11.754;2022-10-17T14:50:20;97738.72;;;33.65;33.12
21185;BME280;18176;49.502;11.754;2022-10-17T14:54:25;97738.78;;;33.34;33.79
21185;BME280;18176;49.502;11.754;2022-10-17T14:58:31;97737.41;;;33.09;33.93
21185;BME280;18176;49.502;11.754;2022-10-17T15:02:31;97745.38;;;32.67;34.47
21185;BME280;18176;49.502;11.754;2022-10-17T15:06:33;97752.75;;;32.35;35.00
21185;BME280;18176;49.502;11.754;2022-10-17T15:10:36;97762.44;;;32.17;35.58
21185;BME280;18176;49.502;11.754;2022-10-17T15:14:40;97764.19;;;31.70;36.48
21185;BME280;18176;49.502;11.754;2022-10-17T15:18:40;97767.16;;;31.65;36.51
21185;BME280;18176;49.502;11.754;2022-10-17T15:22:41;97766.91;;;30.85;38.04
21185;BME280;18176;49.502;11.754;2022-10-17T15:26:41;97755.28;;;30.64;38.71
21185;BME280;18176;49.502;11.754;2022-10-17T15:30:44;97776.47;;;30.55;38.99
21185;BME280;18176;49.502;11.754;2022-10-17T15:34:44;97731.22;;;29.92;39.49
21185;BME280;18176;49.502;11.754;2022-10-17T15:38:44;97783.94;;;29.93;40.29
21185;BME280;18176;49.502;11.754;2022-10-17T15:42:45;97778.84;;;30.24;40.27
21185;BME280;18176;49.502;11.754;2022-10-17T15:46:47;97782.22;;;29.88;40.75
21185;BME280;18176;49.502;11.754;2022-10-17T15:50:47;97783.69;;;29.85;41.07
21185;BME280;18176;49.502;11.754;2022-10-17T15:54:47;97779.34;;;29.35;41.71
21185;BME280;18176;49.502;11.754;2022-10-17T15:58:48;97784.69;;;29.52;42.17
21185;BME280;18176;49.502;11.754;2022-10-17T16:02:52;97790.59;;;29.62;41.61
21185;BME280;18176;49.502;11.754;2022-10-17T16:06:52;97795.59;;;29.31;42.15
21185;BME280;18176;49.502;11.754;2022-10-17T16:10:52;97788.75;;;28.79;43.77
21185;BME280;18176;49.502;11.754;2022-10-17T16:14:52;97798.25;;;28.64;43.87
21185;BME280;18176;49.502;11.754;2022-10-17T16:18:56;97800.88;;;28.26;44.64
21185;BME280;18176;49.502;11.754;2022-10-17T16:22:57;97795.72;;;27.73;45.97
21185;BME280;18176;49.502;11.754;2022-10-17T16:26:59;97763.41;;;27.15;46.57
21185;BME280;18176;49.502;11.754;2022-10-17T16:30:59;97809.22;;;27.31;46.96
21185;BME280;18176;49.502;11.754;2022-10-17T16:35:03;97795.19;;;26.67;48.05
21185;BME280;18176;49.502;11.754;2022-10-17T16:39:03;97812.00;;;26.69;48.35
21185;BME280;18176;49.502;11.754;2022-10-17T16:43:03;97811.16;;;26.60;48.84
21185;BME280;18176;49.502;11.754;2022-10-17T16:47:03;97807.66;;;26.37;49.68
21185;BME280;18176;49.502;11.754;2022-10-17T16:51:06;97816.13;;;25.78;50.68
21185;BME280;18176;49.502;11.754;2022-10-17T16:55:08;97786.63;;;25.49;50.94
21185;BME280;18176;49.502;11.754;2022-10-17T16:59:10;97805.72;;;25.44;51.33
21185;BME280;18176;49.502;11.754;2022-10-17T17:03:10;97826.81;;;25.34;51.67
21185;BME280;18176;49.502;11.754;2022-10-17T17:07:13;97819.09;;;25.27;52.50
21185;BME280;18176;49.502;11.754;2022-10-17T17:11:18;97829.03;;;25.32;52.67
21185;BME280;18176;49.502;11.754;2022-10-17T17:15:18;97810.66;;;25.01;53.04
21185;BME280;18176;49.502;11.754;2022-10-17T17:19:18;97815.91;;;24.98;53.48
21185;BME280;18176;49.502;11.754;2022-10-17T17:23:21;97828.41;;;24.94;53.33
21185;BME280;18176;49.502;11.754;2022-10-17T17:27:21;97839.91;;;25.04;53.23
21185;BME280;18176;49.502;11.754;2022-10-17T17:31:24;97840.00;;;24.99;53.46
21185;BME280;18176;49.502;11.754;2022-10-17T17:35:24;97840.66;;;24.78;53.81
21185;BME280;18176;49.502;11.754;2022-10-17T17:39:27;97824.16;;;24.74;53.49
21185;BME280;18176;49.502;11.754;2022-10-17T17:43:28;97852.91;;;24.89;53.59
21185;BME280;18176;49.502;11.754;2022-10-17T17:47:28;97842.91;;;24.71;53.74
21185;BME280;18176;49.502;11.754;2022-10-17T17:51:28;97823.31;;;24.47;54.14
21185;BME280;18176;49.502;11.754;2022-10-17T17:55:34;97853.44;;;24.59;54.09
21185;BME280;18176;49.502;11.754;2022-10-17T17:59:34;97861.59;;;24.59;54.11
21185;BME280;18176;49.502;11.754;2022-10-17T18:03:38;97820.09;;;24.45;53.75
21185;BME280;18176;49.502;11.754;2022-10-17T18:07:38;97867.31;;;24.71;53.77
21185;BME280;18176;49.502;11.754;2022-10-17T18:11:41;97858.06;;;24.58;53.66
21185;BME280;18176;49.502;11.754;2022-10-17T18:15:41;97859.63;;;24.46;54.54
21185;BME280;18176;49.502;11.754;2022-10-17T18:19:42;97869.31;;;24.33;54.45
21185;BME280;18176;49.502;11.754;2022-10-17T18:23:44;97868.31;;;24.10;54.82
21185;BME280;18176;49.502;11.754;2022-10-17T18:27:49;97876.84;;;23.99;54.83
21185;BME280;18176;49.502;11.754;2022-10-17T18:31:49;97865.84;;;23.90;55.08
21185;BME280;18176;49.502;11.754;2022-10-17T18:35:52;97864.09;;;23.81;55.44
21185;BME280;18176;49.502;11.754;2022-10-17T18:39:54;97884.50;;;23.73;55.98
21185;BME280;18176;49.502;11.754;2022-10-17T18:43:57;97874.75;;;23.53;56.22
21185;BME280;18176;49.502;11.754;2022-10-17T18:47:59;97889.34;;;23.29;56.72
21185;BME280;18176;49.502;11.754;2022-10-17T18:52:01;97899.66;;;23.27;56.73
21185;BME280;18176;49.502;11.754;2022-10-17T18:56:01;97892.63;;;23.26;56.42
21185;BME280;18176;49.502;11.754;2022-10-17T19:00:06;97875.06;;;23.23;56.59
21185;BME280;18176;49.502;11.754;2022-10-17T19:04:07;97885.91;;;22.99;57.42
21185;BME280;18176;49.502;11.754;2022-10-17T19:08:07;97900.84;;;22.92;57.53
21185;BME280;18176;49.502;11.754;2022-10-17T19:12:10;97907.56;;;22.94;57.55
21185;BME280;18176;49.502;11.754;2022-10-17T19:16:15;97906.25;;;22.92;57.08
21185;BME280;18176;49.502;11.754;2022-10-17T19:20:16;97916.25;;;22.91;57.09
21185;BME280;18176;49.502;11.754;2022-10-17T19:24:20;97913.56;;;22.86;56.94
21185;BME280;18176;49.502;11.754;2022-10-17T19:28:20;97905.94;;;22.65;57.29
21185;BME280;18176;49.502;11.754;2022-10-17T19:32:24;97899.19;;;22.67;57.48
21185;BME280;18176;49.502;11.754;2022-10-17T19:36:27;97897.84;;;22.65;57.36
21185;BME280;18176;49.502;11.754;2022-10-17T19:40:29;97894.09;;;22.61;56.96
21185;BME280;18176;49.502;11.754;2022-10-17T19:44:31;97885.34;;;22.40;57.38
21185;BME280;18176;49.502;11.754;2022-10-17T19:48:36;97890.59;;;22.21;57.48
21185;BME280;18176;49.502;11.754;2022-10-17T19:52:36;97896.94;;;22.35;57.45
21185;BME280;18176;49.502;11.754;2022-10-17T19:56:36;97916.28;;;22.14;57.68
21185;BME280;18176;49.502;11.754;2022-10-17T20:00:45;97916.31;;;22.09;57.87
21185;BME280;18176;49.502;11.754;2022-10-17T20:04:51;97912.53;;;22.10;57.93
21185;BME280;18176;49.502;11.754;2022-10-17T20:09:12;97916.91;;;22.01;58.10
21185;BME280;18176;49.502;11.754;2022-10-17T20:13:14;97914.25;;;21.91;58.09
21185;BME280;18176;49.502;11.754;2022-10-17T20:17:14;97929.63;;;21.95;58.37
21185;BME280;18176;49.502;11.754;2022-10-17T20:21:19;97932.00;;;22.02;58.45
21185;BME280;18176;49.502;11.754;2022-10-17T20:25:19;97932.56;;;21.99;57.92
21185;BME280;18176;49.502;11.754;2022-10-17T20:29:20;97942.31;;;21.95;57.98
21185;BME280;18176;49.502;11.754;2022-10-17T20:33:22;97939.69;;;21.85;58.03
21185;BME280;18176;49.502;11.754;2022-10-17T20:37:32;97948.91;;;21.63;58.33
21185;BME280;18176;49.502;11.754;2022-10-17T20:41:39;97950.03;;;21.47;58.21
21185;BME280;18176;49.502;11.754;2022-10-17T20:45:42;97918.22;;;21.44;58.11
21185;BME280;18176;49.502;11.754;2022-10-17T20:49:48;97937.06;;;21.49;57.94
21185;BME280;18176;49.502;11.754;2022-10-17T20:53:50;97943.00;;;21.51;58.07
21185;BME280;18176;49.502;11.754;2022-10-17T20:58:11;97891.38;;;21.04;58.54
21185;BME280;18176;49.502;11.754;2022-10-17T21:02:13;97929.59;;;21.21;58.49
21185;BME280;18176;49.502;11.754;2022-10-17T21:06:14;97941.44;;;21.25;58.32
21185;BME280;18176;49.502;11.754;2022-10-17T21:10:17;97946.88;;;21.20;58.32
21185;BME280;18176;49.502;11.754;2022-10-17T21:14:31;97935.03;;;21.11;58.39
21185;BME280;18176;49.502;11.754;2022-10-17T21:18:32;97953.34;;;21.19;58.20
21185;BME280;18176;49.502;11.754;2022-10-17T21:22:33;97943.31;;;21.30;57.89
21185;BME280;18176;49.502;11.754;2022-10-17T21:26:37;97935.03;;;20.81;58.43
21185;BME280;18176;49.502;11.754;2022-10-17T21:30:37;97963.31;;;20.98;58.54
21185;BME280;18176;49.502;11.754;2022-10-17T21:34:38;97956.56;;;20.91;58.81
21185;BME280;18176;49.502;11.754;2022-10-17T21:38:39;97946.91;;;20.60;58.99